Airfield :
LOGIN :

Register | Disclaimer

   EN    FR    IT 

 










Legend :    VFR   Marginal VFR   IFR   Intensive IFR   Very Intensive IFR
Visi :
Ceiling :
>= 8 km
>= 3000ft
5 to 8 km
1000 to 3000 ft
1500m to 5 km
500 to 1000 ft
800 to 1500m
200 to 500 ft
< 800m
< 200 ft
Symbols :   Thunderstorms  Fog  Heavy snow  Heavy precipitations  Wind > 20 kt
SIGMETs :     Misc.  Thunderstorms  Icing  Turbulence  Mountain Waves  Volcanic Ashes






- Airport Elevation : 659 ft
- IATA code : LYN


LFLY - Lyon Bron

CURRENT METAR :
  • 191130Z AUTO VRB03KT CAVOK 03/M01 Q1022 NOSIG

EXPIRED METARs :
  • 191100Z AUTO 18004KT CAVOK 02/M01 Q1023 NOSIG
  • 191030Z AUTO VRB03KT CAVOK 01/M01 Q1023 NOSIG
  • 191000Z AUTO VRB02KT CAVOK 00/M01 Q1023 NOSIG
  • 190930Z AUTO 20003KT CAVOK M00/M01 Q1024 NOSIG
  • 190900Z AUTO 19002KT 6000 NSC M01/M02 Q1024 TEMPO 0600 FZFG VV///

TAF TAF LFLY
Valid from the 19 at 12:00 until the 20 at 12:00 UTC


191100Z 1912/2012 19006KT CAVOK
BECMG 1915/1918 19015G25KT
BECMG 1921/1924 19020G35KT
PROB30
TEMPO 2002/2010 BKN014
TEMPO 2009/2012 19030G45KT
ATIS : +33 4 72 15 87 96



MET'MAP, your aeronautical weather chart ! - Copyright ORBIFLY December 2007 - Disclaimer

ORBIFLY MET'MAP TEAM :

Programming & Development : Alexandra Zaïnal
Concept & original design : Baudouin d'Aumeries
Assistance for programming : Marc-Olivier Méhu
Technical & hardware support : Manuel Goepfert

Contact : metmap@orbifly.com




SOURCES & CREDITS :

   NOAA